Time;durP1;ratioP1;P1;durP2;ratioP2;P2;SDS_P1;SDS_P2;PMS_P1;PMS_P2;Temp;Humidity;BMP_temperature;BMP_pressure;BME280_temperature;BME280_humidity;BME280_pressure;Samples;Min_cycle;Max_cycle;Signal;HPM_P1;HPM_P2
2023/08/06 00:00:21;;;;;;;0.90;0.63;;;;;;;;;;5060759;28;20024;-83
2023/08/06 00:02:46;;;;;;;1.95;1.25;;;;;;;;;;5061645;28;20028;-84
2023/08/06 00:05:12;;;;;;;0.60;0.60;;;;;;;;;;5061827;28;20025;-85
2023/08/06 00:07:37;;;;;;;3.53;1.23;;;;;;;;;;5065119;28;20024;-85
2023/08/06 00:10:03;;;;;;;2.42;0.90;;;;;;;;;;5055470;28;20099;-84
2023/08/06 00:12:28;;;;;;;1.08;0.90;;;;;;;;;;5057114;28;20040;-85
2023/08/06 00:14:54;;;;;;;2.90;1.48;;;;;;;;;;5062556;28;20024;-85
2023/08/06 00:17:20;;;;;;;3.08;1.63;;;;;;;;;;5065082;28;20031;-85
2023/08/06 00:19:45;;;;;;;3.97;1.13;;;;;;;;;;5058504;28;20067;-85
2023/08/06 00:22:11;;;;;;;1.95;0.98;;;;;;;;;;5057726;28;20024;-84
2023/08/06 00:24:36;;;;;;;1.42;0.90;;;;;;;;;;5066225;28;20036;-83
2023/08/06 00:27:02;;;;;;;1.23;1.08;;;;;;;;;;5062506;28;20044;-83
2023/08/06 00:29:28;;;;;;;1.10;1.00;;;;;;;;;;5062038;28;20037;-84
2023/08/06 00:31:56;;;;;;;1.05;0.95;;;;;;;;;;5065452;28;20037;-84
2023/08/06 00:34:27;;;;;;;0.93;0.70;;;;;;;;;;5067183;28;20371;-83
2023/08/06 00:36:54;;;;;;;1.48;1.00;;;;;;;;;;5060946;28;20028;-84
2023/08/06 00:39:19;;;;;;;0.65;0.50;;;;;;;;;;5060779;28;20029;-84
2023/08/06 00:41:45;;;;;;;1.95;1.23;;;;;;;;;;5061713;28;20119;-83
2023/08/06 00:44:10;;;;;;;0.63;0.57;;;;;;;;;;5065432;28;20495;-84
2023/08/06 00:46:39;;;;;;;0.70;0.63;;;;;;;;;;5061803;28;20051;-84
2023/08/06 00:49:08;;;;;;;1.33;0.73;;;;;;;;;;5062464;28;20070;-84
2023/08/06 00:51:34;;;;;;;1.48;0.77;;;;;;;;;;5061845;28;20029;-84
2023/08/06 00:54:00;;;;;;;0.82;0.65;;;;;;;;;;5065757;28;20040;-84
2023/08/06 00:56:25;;;;;;;1.73;1.25;;;;;;;;;;5063145;28;20055;-84
2023/08/06 00:58:52;;;;;;;4.55;0.93;;;;;;;;;;5061012;28;20056;-86
2023/08/06 01:01:17;;;;;;;1.50;0.90;;;;;;;;;;5065968;28;20032;-83
2023/08/06 01:03:43;;;;;;;0.77;0.77;;;;;;;;;;5061229;28;20036;-84
2023/08/06 01:06:09;;;;;;;0.52;0.30;;;;;;;;;;5064077;28;20025;-87
2023/08/06 01:09:01;;;;;;;0.60;0.50;;;;;;;;;;5060967;28;20024;-85
2023/08/06 01:11:50;;;;;;;1.80;1.13;;;;;;;;;;5061629;28;20048;-83
2023/08/06 01:14:28;;;;;;;0.53;0.53;;;;;;;;;;5059403;28;20028;-84
2023/08/06 01:16:54;;;;;;;2.00;1.55;;;;;;;;;;5062113;28;20074;-84
2023/08/06 01:19:21;;;;;;;1.17;0.80;;;;;;;;;;5064188;28;20490;-86
2023/08/06 01:21:46;;;;;;;0.30;0.30;;;;;;;;;;5055553;28;20024;-82
2023/08/06 01:24:12;;;;;;;1.08;0.73;;;;;;;;;;5061494;28;20033;-83
2023/08/06 01:27:14;;;;;;;0.75;0.50;;;;;;;;;;5064935;28;20671;-86
2023/08/06 01:29:59;;;;;;;0.70;0.60;;;;;;;;;;5057190;28;20095;-83
2023/08/06 01:32:26;;;;;;;0.57;0.57;;;;;;;;;;5059191;28;20060;-86
2023/08/06 01:34:54;;;;;;;0.60;0.50;;;;;;;;;;5062748;28;20028;-84
2023/08/06 01:37:19;;;;;;;0.50;0.50;;;;;;;;;;5063623;28;20035;-86
2023/08/06 01:39:45;;;;;;;1.20;0.35;;;;;;;;;;5059612;28;20472;-86
2023/08/06 01:42:11;;;;;;;1.17;0.70;;;;;;;;;;5063218;28;20021;-85
2023/08/06 01:44:36;;;;;;;1.65;0.50;;;;;;;;;;5059177;28;20445;-85
2023/08/06 01:47:03;;;;;;;0.88;0.35;;;;;;;;;;5057808;28;20861;-85
2023/08/06 01:49:29;;;;;;;1.58;0.80;;;;;;;;;;5059695;28;20032;-85
2023/08/06 01:51:54;;;;;;;0.45;0.43;;;;;;;;;;5062543;28;20040;-87
2023/08/06 01:54:20;;;;;;;0.82;0.80;;;;;;;;;;5063636;28;20112;-84
2023/08/06 01:56:48;;;;;;;1.48;0.98;;;;;;;;;;5056005;28;20029;-86
2023/08/06 01:59:14;;;;;;;1.08;0.68;;;;;;;;;;5062050;28;20036;-86
2023/08/06 02:01:39;;;;;;;1.25;1.15;;;;;;;;;;5059048;28;20036;-84
2023/08/06 02:04:05;;;;;;;1.35;0.90;;;;;;;;;;5054836;28;20032;-84
2023/08/06 02:06:30;;;;;;;1.10;0.80;;;;;;;;;;5062696;28;20039;-83
2023/08/06 02:08:56;;;;;;;2.60;1.15;;;;;;;;;;5061986;28;20029;-84
2023/08/06 02:11:21;;;;;;;2.08;1.30;;;;;;;;;;5054120;28;20515;-84
2023/08/06 02:13:47;;;;;;;1.25;0.75;;;;;;;;;;5058347;28;20029;-84
2023/08/06 02:16:12;;;;;;;1.77;1.30;;;;;;;;;;5058041;28;20051;-84
2023/08/06 02:18:38;;;;;;;1.98;0.95;;;;;;;;;;5059081;28;20024;-83
2023/08/06 02:21:03;;;;;;;2.15;1.08;;;;;;;;;;5061058;28;20189;-84
2023/08/06 02:23:29;;;;;;;0.80;0.55;;;;;;;;;;5055702;28;20467;-83
2023/08/06 02:25:58;;;;;;;0.98;0.63;;;;;;;;;;5061054;28;20127;-84
2023/08/06 02:28:23;;;;;;;1.77;0.68;;;;;;;;;;5063392;28;20555;-84
2023/08/06 02:30:52;;;;;;;1.30;0.60;;;;;;;;;;5058231;28;20115;-83
2023/08/06 02:33:18;;;;;;;1.52;0.95;;;;;;;;;;5062220;28;20029;-86
2023/08/06 02:35:44;;;;;;;0.80;0.60;;;;;;;;;;5065513;28;20484;-85
2023/08/06 02:38:09;;;;;;;1.13;0.80;;;;;;;;;;5058955;28;20459;-82
2023/08/06 02:40:35;;;;;;;0.73;0.50;;;;;;;;;;5060105;28;20036;-83
2023/08/06 02:43:00;;;;;;;1.02;0.57;;;;;;;;;;5054965;28;20086;-82
2023/08/06 02:45:25;;;;;;;1.08;0.52;;;;;;;;;;5057095;28;20028;-82
2023/08/06 02:47:51;;;;;;;1.20;0.75;;;;;;;;;;5055148;28;20063;-82
2023/08/06 02:50:16;;;;;;;0.95;0.80;;;;;;;;;;5058881;28;20032;-84
2023/08/06 02:52:42;;;;;;;1.25;0.63;;;;;;;;;;5062099;28;20036;-81
2023/08/06 02:55:08;;;;;;;1.05;0.82;;;;;;;;;;5057982;28;20025;-83
2023/08/06 02:57:33;;;;;;;0.80;0.70;;;;;;;;;;5066689;28;20074;-84
2023/08/06 02:59:59;;;;;;;0.70;0.63;;;;;;;;;;5058816;28;20017;-82
2023/08/06 03:02:24;;;;;;;1.10;0.52;;;;;;;;;;5061116;28;20150;-82
2023/08/06 03:04:50;;;;;;;1.75;0.68;;;;;;;;;;5063518;28;20066;-82
2023/08/06 03:07:15;;;;;;;0.65;0.50;;;;;;;;;;5062951;28;20029;-85
2023/08/06 03:09:41;;;;;;;1.13;0.85;;;;;;;;;;5061277;28;20102;-84
2023/08/06 03:12:06;;;;;;;0.90;0.80;;;;;;;;;;5065169;28;20059;-84
2023/08/06 03:14:32;;;;;;;0.68;0.40;;;;;;;;;;5070549;28;20025;-82
2023/08/06 03:17:00;;;;;;;1.17;0.70;;;;;;;;;;5057348;28;20364;-82
2023/08/06 03:19:25;;;;;;;0.32;0.32;;;;;;;;;;5064559;28;20464;-83
2023/08/06 03:21:51;;;;;;;0.40;0.40;;;;;;;;;;5065111;28;20024;-84
2023/08/06 03:24:16;;;;;;;1.08;0.70;;;;;;;;;;5060180;28;20036;-85
2023/08/06 03:26:42;;;;;;;0.52;0.47;;;;;;;;;;5064135;28;20383;-83
2023/08/06 03:29:07;;;;;;;1.08;0.98;;;;;;;;;;5060639;28;20156;-83
2023/08/06 03:31:33;;;;;;;1.40;1.15;;;;;;;;;;5062346;28;20112;-83
2023/08/06 03:33:58;;;;;;;0.68;0.55;;;;;;;;;;5056165;28;20029;-83
2023/08/06 03:36:24;;;;;;;0.90;0.68;;;;;;;;;;5063999;28;20029;-84
2023/08/06 03:38:49;;;;;;;0.55;0.50;;;;;;;;;;5059974;28;20108;-83
2023/08/06 03:41:15;;;;;;;0.73;0.57;;;;;;;;;;5062420;28;20029;-82
2023/08/06 03:43:41;;;;;;;0.50;0.40;;;;;;;;;;5058008;28;20028;-84
2023/08/06 03:46:06;;;;;;;0.60;0.50;;;;;;;;;;5054962;28;20055;-82
2023/08/06 03:48:32;;;;;;;0.95;0.55;;;;;;;;;;5060473;28;20039;-86
2023/08/06 03:50:57;;;;;;;0.85;0.80;;;;;;;;;;5063737;28;20028;-84
2023/08/06 03:53:23;;;;;;;0.55;0.45;;;;;;;;;;5063641;28;20029;-84
2023/08/06 03:55:48;;;;;;;1.10;0.88;;;;;;;;;;5061690;28;20031;-84
2023/08/06 03:58:14;;;;;;;0.50;0.43;;;;;;;;;;5063458;28;20024;-86
2023/08/06 04:00:39;;;;;;;0.65;0.50;;;;;;;;;;5062527;28;20134;-83
2023/08/06 04:03:07;;;;;;;1.05;0.77;;;;;;;;;;5064600;28;20059;-84
2023/08/06 04:05:33;;;;;;;0.32;0.32;;;;;;;;;;5061098;28;20084;-85
2023/08/06 04:07:59;;;;;;;0.57;0.50;;;;;;;;;;5064804;28;20047;-87
2023/08/06 04:17:25;;;;;;;2.65;1.42;;;;;;;;;;5049679;28;20032;-90
2023/08/06 04:19:52;;;;;;;0.73;0.63;;;;;;;;;;5059920;28;20115;-88
2023/08/06 04:22:32;;;;;;;1.33;0.88;;;;;;;;;;5058784;28;20047;-89
2023/08/06 04:25:13;;;;;;;1.38;0.90;;;;;;;;;;5061373;28;20060;-86
2023/08/06 04:27:47;;;;;;;1.33;0.75;;;;;;;;;;5060907;28;20057;-88
2023/08/06 04:30:39;;;;;;;0.50;0.50;;;;;;;;;;5059329;28;20098;-88
2023/08/06 04:33:20;;;;;;;2.65;1.85;;;;;;;;;;5048419;28;20064;-88
2023/08/06 04:35:46;;;;;;;2.75;1.85;;;;;;;;;;5054237;28;20094;-87
2023/08/06 04:38:11;;;;;;;1.60;1.00;;;;;;;;;;5061476;28;20378;-86
2023/08/06 04:40:40;;;;;;;1.33;1.13;;;;;;;;;;5060380;28;20050;-86
2023/08/06 04:43:06;;;;;;;0.97;0.70;;;;;;;;;;5062831;28;20028;-85
2023/08/06 04:45:31;;;;;;;1.20;0.85;;;;;;;;;;5058858;28;20029;-85
2023/08/06 04:47:56;;;;;;;1.42;1.05;;;;;;;;;;5058299;28;20467;-86
2023/08/06 04:50:22;;;;;;;2.83;1.33;;;;;;;;;;5057008;28;20429;-85
2023/08/06 04:52:47;;;;;;;2.90;1.40;;;;;;;;;;5058312;28;20396;-82
2023/08/06 04:55:13;;;;;;;1.33;1.00;;;;;;;;;;5061462;28;20511;-87
2023/08/06 04:57:38;;;;;;;2.28;1.58;;;;;;;;;;5057229;28;20021;-86
2023/08/06 05:00:05;;;;;;;0.85;0.68;;;;;;;;;;5057066;28;20111;-83
2023/08/06 05:02:32;;;;;;;2.35;1.27;;;;;;;;;;5060293;28;20032;-84
2023/08/06 05:04:58;;;;;;;1.85;1.10;;;;;;;;;;5056703;28;20025;-84
2023/08/06 05:07:23;;;;;;;2.70;1.15;;;;;;;;;;5057565;28;20036;-86
2023/08/06 05:09:49;;;;;;;0.95;0.50;;;;;;;;;;5056768;28;20032;-86
2023/08/06 05:12:14;;;;;;;1.98;1.63;;;;;;;;;;5059115;28;20036;-87
2023/08/06 05:14:40;;;;;;;1.60;1.00;;;;;;;;;;5058944;28;20028;-87
2023/08/06 05:17:05;;;;;;;3.05;1.52;;;;;;;;;;5059117;28;20052;-86
2023/08/06 05:19:31;;;;;;;0.57;0.38;;;;;;;;;;5057466;28;20033;-85
2023/08/06 05:21:56;;;;;;;1.35;1.00;;;;;;;;;;5059445;28;20029;-85
2023/08/06 05:24:22;;;;;;;1.45;1.35;;;;;;;;;;5054923;28;20369;-85
2023/08/06 05:26:47;;;;;;;1.17;0.98;;;;;;;;;;5062730;28;20040;-85
2023/08/06 05:29:13;;;;;;;0.68;0.63;;;;;;;;;;5064257;28;20573;-84
2023/08/06 05:31:38;;;;;;;2.50;2.13;;;;;;;;;;5053036;28;20043;-83
2023/08/06 05:34:04;;;;;;;1.65;1.13;;;;;;;;;;5059596;28;20470;-83
2023/08/06 05:36:29;;;;;;;2.85;1.73;;;;;;;;;;5052730;28;20549;-84
2023/08/06 05:38:55;;;;;;;2.85;2.08;;;;;;;;;;5053939;28;20040;-81
2023/08/06 05:41:20;;;;;;;2.78;1.85;;;;;;;;;;5056375;28;20031;-81
2023/08/06 05:43:45;;;;;;;3.00;1.70;;;;;;;;;;5046865;28;20025;-81
2023/08/06 05:46:11;;;;;;;2.85;1.80;;;;;;;;;;5051381;28;20490;-80
2023/08/06 05:48:36;;;;;;;2.05;1.70;;;;;;;;;;5050591;28;20058;-82
2023/08/06 05:51:02;;;;;;;5.70;2.22;;;;;;;;;;5050772;28;20049;-83
2023/08/06 05:53:27;;;;;;;2.10;1.90;;;;;;;;;;5058692;28;20089;-82
2023/08/06 05:55:53;;;;;;;4.32;1.95;;;;;;;;;;5041559;28;20075;-87
2023/08/06 05:58:20;;;;;;;1.52;1.40;;;;;;;;;;5046919;28;20029;-84
2023/08/06 06:00:45;;;;;;;4.72;3.05;;;;;;;;;;5042982;28;20492;-85
2023/08/06 06:03:11;;;;;;;3.72;3.00;;;;;;;;;;5057297;28;20056;-84
2023/08/06 06:05:39;;;;;;;3.03;2.25;;;;;;;;;;5050651;28;20480;-86
2023/08/06 06:08:04;;;;;;;2.95;2.35;;;;;;;;;;5057216;28;20603;-83
2023/08/06 06:10:30;;;;;;;2.17;1.95;;;;;;;;;;5052242;28;20104;-85
2023/08/06 06:12:56;;;;;;;4.35;2.83;;;;;;;;;;5058628;28;20028;-85
2023/08/06 06:15:21;;;;;;;2.88;2.55;;;;;;;;;;5047833;28;20036;-85
2023/08/06 06:17:47;;;;;;;3.10;2.35;;;;;;;;;;5048866;28;20040;-81
2023/08/06 06:20:12;;;;;;;7.50;2.38;;;;;;;;;;5042884;28;20033;-84
2023/08/06 06:22:38;;;;;;;4.00;2.85;;;;;;;;;;5044800;28;20096;-86
2023/08/06 06:25:04;;;;;;;4.22;3.00;;;;;;;;;;5049004;28;20531;-83
2023/08/06 06:27:29;;;;;;;4.50;2.78;;;;;;;;;;5061358;28;20059;-84
2023/08/06 06:29:54;;;;;;;2.72;2.38;;;;;;;;;;5048612;28;20028;-84
2023/08/06 06:32:21;;;;;;;3.97;2.47;;;;;;;;;;5048033;28;20079;-81
2023/08/06 06:34:46;;;;;;;3.85;2.33;;;;;;;;;;5048964;28;20103;-81
2023/08/06 06:37:12;;;;;;;2.67;1.63;;;;;;;;;;5051538;28;20128;-80
2023/08/06 06:39:37;;;;;;;3.70;2.33;;;;;;;;;;5059640;28;20033;-79
2023/08/06 06:42:03;;;;;;;3.05;2.13;;;;;;;;;;5048258;28;20098;-79
2023/08/06 06:44:28;;;;;;;3.67;2.15;;;;;;;;;;5054970;28;20120;-81
2023/08/06 06:46:54;;;;;;;4.13;3.03;;;;;;;;;;5070474;28;20634;-81
2023/08/06 06:49:19;;;;;;;3.45;2.33;;;;;;;;;;5051295;28;20021;-80
2023/08/06 06:51:45;;;;;;;4.28;2.70;;;;;;;;;;5046537;28;20119;-80
2023/08/06 06:54:11;;;;;;;2.85;1.92;;;;;;;;;;5051062;28;20025;-80
2023/08/06 06:56:37;;;;;;;3.40;2.45;;;;;;;;;;5068948;28;20028;-80
2023/08/06 06:59:02;;;;;;;3.40;1.98;;;;;;;;;;5053463;28;20044;-82
2023/08/06 07:01:27;;;;;;;2.90;1.70;;;;;;;;;;5051854;28;20033;-82
2023/08/06 07:03:53;;;;;;;2.08;1.60;;;;;;;;;;5053028;28;20384;-81
2023/08/06 07:06:18;;;;;;;2.05;1.60;;;;;;;;;;5053390;28;20431;-82
2023/08/06 07:08:45;;;;;;;1.98;1.23;;;;;;;;;;5051697;28;20097;-84
2023/08/06 07:11:11;;;;;;;3.28;2.15;;;;;;;;;;5059450;28;20028;-82
2023/08/06 07:13:36;;;;;;;1.88;1.58;;;;;;;;;;5053973;28;20058;-80
2023/08/06 07:16:02;;;;;;;1.20;0.88;;;;;;;;;;5051843;28;20078;-83
2023/08/06 07:18:27;;;;;;;2.63;1.98;;;;;;;;;;5053865;28;20091;-83
2023/08/06 07:20:54;;;;;;;1.95;1.00;;;;;;;;;;5060798;28;20031;-84
2023/08/06 07:23:25;;;;;;;2.30;1.55;;;;;;;;;;5054565;28;20061;-87
2023/08/06 07:25:51;;;;;;;0.82;0.77;;;;;;;;;;5058639;28;20032;-80
2023/08/06 07:28:16;;;;;;;5.40;0.90;;;;;;;;;;5062631;28;20052;-85
2023/08/06 07:30:43;;;;;;;1.45;0.82;;;;;;;;;;5050441;28;20030;-85
2023/08/06 07:33:09;;;;;;;0.55;0.55;;;;;;;;;;5058147;28;20483;-85
2023/08/06 07:35:35;;;;;;;1.05;0.77;;;;;;;;;;5061887;28;20033;-82
2023/08/06 07:38:01;;;;;;;0.95;0.70;;;;;;;;;;5052351;28;20047;-83
2023/08/06 07:40:26;;;;;;;1.80;1.05;;;;;;;;;;5052856;28;20423;-85
2023/08/06 07:42:52;;;;;;;0.45;0.35;;;;;;;;;;5052395;28;20039;-84
2023/08/06 07:45:18;;;;;;;1.10;0.80;;;;;;;;;;5061196;28;20115;-84
2023/08/06 07:47:44;;;;;;;0.95;0.85;;;;;;;;;;5062686;28;20032;-84
2023/08/06 07:50:09;;;;;;;0.90;0.77;;;;;;;;;;5052908;28;20033;-86
2023/08/06 07:52:35;;;;;;;0.50;0.50;;;;;;;;;;5068559;28;20460;-85
2023/08/06 07:55:04;;;;;;;0.73;0.47;;;;;;;;;;5065635;28;20092;-87
2023/08/06 07:57:30;;;;;;;1.33;0.80;;;;;;;;;;5060251;28;20484;-81
2023/08/06 07:59:56;;;;;;;0.50;0.45;;;;;;;;;;5060926;28;20033;-86
2023/08/06 08:02:21;;;;;;;1.25;0.50;;;;;;;;;;5054832;28;20388;-85
2023/08/06 08:04:47;;;;;;;1.00;0.73;;;;;;;;;;5058881;28;20116;-82
2023/08/06 08:07:13;;;;;;;0.60;0.47;;;;;;;;;;5064862;28;20104;-83
2023/08/06 08:09:38;;;;;;;0.82;0.60;;;;;;;;;;5055577;28;20048;-83
2023/08/06 08:12:04;;;;;;;0.73;0.70;;;;;;;;;;5064779;28;20035;-83
2023/08/06 08:14:35;;;;;;;0.75;0.50;;;;;;;;;;5056884;28;20025;-82
2023/08/06 08:17:02;;;;;;;0.50;0.47;;;;;;;;;;5048809;28;20029;-82
2023/08/06 08:19:28;;;;;;;1.10;0.98;;;;;;;;;;5052083;28;20025;-83
2023/08/06 08:21:54;;;;;;;1.30;0.90;;;;;;;;;;5049425;28;20028;-83
2023/08/06 08:24:20;;;;;;;1.20;1.00;;;;;;;;;;5058439;28;20704;-82
2023/08/06 08:26:45;;;;;;;1.88;1.35;;;;;;;;;;5049880;28;20029;-85
2023/08/06 08:29:11;;;;;;;1.33;1.13;;;;;;;;;;5049608;28;20059;-81
2023/08/06 08:31:39;;;;;;;1.35;1.13;;;;;;;;;;5064471;28;20479;-82
2023/08/06 08:34:05;;;;;;;1.67;1.30;;;;;;;;;;5055578;28;20048;-85
2023/08/06 08:36:31;;;;;;;1.42;1.25;;;;;;;;;;5048307;28;20031;-86
2023/08/06 08:38:57;;;;;;;2.17;1.80;;;;;;;;;;5049222;28;20380;-83
2023/08/06 08:41:23;;;;;;;1.58;1.48;;;;;;;;;;5052024;28;20503;-82
2023/08/06 08:43:51;;;;;;;2.70;1.42;;;;;;;;;;5049011;28;20115;-84
2023/08/06 08:46:18;;;;;;;0.77;0.63;;;;;;;;;;5055972;28;20037;-85
2023/08/06 08:48:44;;;;;;;1.45;1.33;;;;;;;;;;5057015;28;20013;-82
2023/08/06 08:51:11;;;;;;;1.65;1.38;;;;;;;;;;5060597;28;20091;-84
2023/08/06 08:53:39;;;;;;;1.88;1.02;;;;;;;;;;5064023;28;20042;-84
2023/08/06 08:56:05;;;;;;;1.45;1.35;;;;;;;;;;5058073;28;20036;-84
2023/08/06 08:58:31;;;;;;;1.55;1.40;;;;;;;;;;5051397;28;20021;-82
2023/08/06 09:00:57;;;;;;;0.65;0.65;;;;;;;;;;5046319;28;20477;-86
2023/08/06 09:03:23;;;;;;;1.52;1.00;;;;;;;;;;5062901;28;20426;-85
2023/08/06 09:05:53;;;;;;;1.33;1.00;;;;;;;;;;5051068;28;20070;-84
2023/08/06 09:08:24;;;;;;;0.93;0.73;;;;;;;;;;5050915;28;20032;-83
2023/08/06 09:10:52;;;;;;;1.33;0.68;;;;;;;;;;5049663;28;20021;-82
2023/08/06 09:13:17;;;;;;;0.77;0.50;;;;;;;;;;5046096;28;20381;-82
2023/08/06 09:15:44;;;;;;;1.75;0.93;;;;;;;;;;5050835;28;20074;-82
2023/08/06 09:18:11;;;;;;;0.82;0.75;;;;;;;;;;5045692;28;20037;-82
2023/08/06 09:20:40;;;;;;;0.88;0.82;;;;;;;;;;5050333;28;20093;-81
2023/08/06 09:23:10;;;;;;;0.60;0.57;;;;;;;;;;5051116;28;20392;-85
2023/08/06 09:25:38;;;;;;;1.33;0.90;;;;;;;;;;5049435;28;20029;-84
2023/08/06 09:28:05;;;;;;;0.98;0.75;;;;;;;;;;5048924;28;20056;-85
2023/08/06 09:30:38;;;;;;;0.88;0.55;;;;;;;;;;5054140;28;20036;-84
2023/08/06 09:33:07;;;;;;;1.70;1.10;;;;;;;;;;5053314;28;20040;-85
2023/08/06 09:35:33;;;;;;;3.08;1.08;;;;;;;;;;5050480;28;20029;-82
2023/08/06 09:38:09;;;;;;;1.05;0.95;;;;;;;;;;5052816;28;20469;-87
2023/08/06 09:40:35;;;;;;;1.27;0.73;;;;;;;;;;5060014;28;20393;-86
2023/08/06 09:43:01;;;;;;;1.67;0.88;;;;;;;;;;5043072;28;20040;-83
2023/08/06 09:45:35;;;;;;;0.93;0.70;;;;;;;;;;5050468;28;20024;-84
2023/08/06 09:48:03;;;;;;;1.45;0.80;;;;;;;;;;5062861;28;20091;-85
2023/08/06 09:50:31;;;;;;;1.33;0.68;;;;;;;;;;5042148;28;20461;-86
2023/08/06 09:52:58;;;;;;;1.02;0.80;;;;;;;;;;5043919;28;20373;-86
2023/08/06 09:55:26;;;;;;;0.50;0.50;;;;;;;;;;5049192;28;20111;-83
2023/08/06 09:57:52;;;;;;;1.15;0.77;;;;;;;;;;5050247;28;20079;-84
2023/08/06 10:00:17;;;;;;;1.70;1.05;;;;;;;;;;5052341;28;20472;-87
2023/08/06 10:02:45;;;;;;;1.50;1.13;;;;;;;;;;5057327;28;20082;-85
2023/08/06 10:05:10;;;;;;;1.00;0.88;;;;;;;;;;5053489;28;20029;-85
2023/08/06 10:07:36;;;;;;;1.60;1.10;;;;;;;;;;5045571;28;20113;-86
2023/08/06 10:10:02;;;;;;;1.42;1.00;;;;;;;;;;5056243;28;20036;-87
2023/08/06 10:12:39;;;;;;;2.72;1.00;;;;;;;;;;5052133;28;20397;-85
2023/08/06 10:15:10;;;;;;;1.50;1.05;;;;;;;;;;5058601;28;20028;-86
2023/08/06 10:17:37;;;;;;;0.68;0.55;;;;;;;;;;5054320;28;20068;-85
2023/08/06 10:20:06;;;;;;;0.30;0.28;;;;;;;;;;5063235;28;20040;-83
2023/08/06 10:22:33;;;;;;;1.38;0.95;;;;;;;;;;5051118;28;20377;-82
2023/08/06 10:25:06;;;;;;;0.80;0.65;;;;;;;;;;5053324;28;20040;-83
2023/08/06 10:27:38;;;;;;;0.75;0.65;;;;;;;;;;5050800;28;20033;-82
2023/08/06 10:30:25;;;;;;;1.52;1.00;;;;;;;;;;5050008;28;20071;-84
2023/08/06 10:33:02;;;;;;;1.00;0.75;;;;;;;;;;5050084;28;20043;-85
2023/08/06 10:35:38;;;;;;;1.13;1.00;;;;;;;;;;5043087;28;20520;-87
2023/08/06 10:38:12;;;;;;;1.85;1.05;;;;;;;;;;5053499;28;20112;-84
2023/08/06 10:40:40;;;;;;;1.70;1.27;;;;;;;;;;5055501;28;20416;-85
2023/08/06 10:43:07;;;;;;;0.70;0.70;;;;;;;;;;5054887;28;20025;-85
2023/08/06 10:45:37;;;;;;;1.48;1.27;;;;;;;;;;5049738;28;20028;-83
2023/08/06 10:48:04;;;;;;;1.45;0.70;;;;;;;;;;5055702;28;20040;-86
2023/08/06 10:50:31;;;;;;;2.40;1.15;;;;;;;;;;5052085;28;20435;-85
2023/08/06 10:52:57;;;;;;;4.85;0.93;;;;;;;;;;5049410;28;20029;-82
2023/08/06 10:55:26;;;;;;;1.85;1.20;;;;;;;;;;5051207;28;20376;-85
2023/08/06 10:57:52;;;;;;;1.02;0.90;;;;;;;;;;5051123;28;20021;-87
2023/08/06 11:00:17;;;;;;;1.92;1.23;;;;;;;;;;5049083;28;20366;-87
2023/08/06 11:02:46;;;;;;;2.90;1.10;;;;;;;;;;5058659;28;20126;-85
2023/08/06 11:05:12;;;;;;;1.23;0.88;;;;;;;;;;5044958;28;20477;-83
2023/08/06 11:07:38;;;;;;;1.50;0.95;;;;;;;;;;5053051;28;20039;-85
2023/08/06 11:10:05;;;;;;;2.20;1.50;;;;;;;;;;5060063;28;20028;-85
2023/08/06 11:12:32;;;;;;;0.57;0.57;;;;;;;;;;5055874;28;20617;-87
2023/08/06 11:14:58;;;;;;;0.82;0.80;;;;;;;;;;5062524;28;20036;-87
2023/08/06 11:17:24;;;;;;;1.63;1.23;;;;;;;;;;5061205;28;20035;-91
2023/08/06 11:19:50;;;;;;;1.10;0.90;;;;;;;;;;5060154;28;20063;-87
2023/08/06 11:22:16;;;;;;;1.20;1.10;;;;;;;;;;5046509;28;20049;-87
2023/08/06 11:24:41;;;;;;;1.70;1.02;;;;;;;;;;5050773;28;20500;-88
2023/08/06 11:27:17;;;;;;;0.68;0.68;;;;;;;;;;5050316;28;20107;-88
2023/08/06 11:29:44;;;;;;;1.55;1.00;;;;;;;;;;5046300;28;20037;-86
2023/08/06 11:32:10;;;;;;;0.60;0.60;;;;;;;;;;5053490;28;20024;-85
2023/08/06 11:34:36;;;;;;;0.93;0.60;;;;;;;;;;5055077;28;20520;-87
2023/08/06 11:37:05;;;;;;;1.10;0.55;;;;;;;;;;5062569;28;20103;-85
2023/08/06 11:39:35;;;;;;;1.13;0.95;;;;;;;;;;5057911;28;20358;-82
2023/08/06 11:42:03;;;;;;;0.98;0.80;;;;;;;;;;5052819;28;20060;-84
2023/08/06 11:44:35;;;;;;;1.30;0.90;;;;;;;;;;5049846;28;20040;-84
2023/08/06 11:47:02;;;;;;;1.05;0.85;;;;;;;;;;5052594;28;20502;-83
2023/08/06 11:49:45;;;;;;;6.95;1.27;;;;;;;;;;5052326;28;20040;-82
2023/08/06 11:52:22;;;;;;;1.20;1.00;;;;;;;;;;5052182;28;20060;-83
2023/08/06 11:55:03;;;;;;;1.48;1.02;;;;;;;;;;5052477;28;20024;-82
2023/08/06 11:57:32;;;;;;;1.55;0.90;;;;;;;;;;5051459;28;20021;-82
2023/08/06 12:00:03;;;;;;;0.95;0.77;;;;;;;;;;5052225;28;20060;-83
2023/08/06 12:02:34;;;;;;;1.35;0.80;;;;;;;;;;5049362;28;23154;-82
2023/08/06 12:05:01;;;;;;;2.45;1.60;;;;;;;;;;5052075;28;20021;-84
2023/08/06 12:07:29;;;;;;;1.77;1.25;;;;;;;;;;5052277;28;20484;-83
2023/08/06 12:09:55;;;;;;;0.90;0.70;;;;;;;;;;5051847;28;20075;-82
2023/08/06 12:12:20;;;;;;;1.10;0.77;;;;;;;;;;5052074;28;20029;-83
2023/08/06 12:14:46;;;;;;;0.90;0.70;;;;;;;;;;5058463;28;20031;-84
2023/08/06 12:17:11;;;;;;;1.00;0.80;;;;;;;;;;5051449;28;20033;-81
2023/08/06 12:19:37;;;;;;;1.75;1.05;;;;;;;;;;5050707;28;20032;-83
2023/08/06 12:22:02;;;;;;;1.88;1.15;;;;;;;;;;5050414;28;20040;-84
2023/08/06 12:24:31;;;;;;;0.95;0.85;;;;;;;;;;5049993;28;20033;-84
2023/08/06 12:27:02;;;;;;;2.23;1.20;;;;;;;;;;5052168;28;20032;-84
2023/08/06 12:29:28;;;;;;;2.08;1.13;;;;;;;;;;5051309;28;20508;-86
2023/08/06 12:31:53;;;;;;;1.58;1.25;;;;;;;;;;5051771;28;20385;-83
2023/08/06 12:34:19;;;;;;;1.17;0.88;;;;;;;;;;5051601;28;20031;-84
2023/08/06 12:36:44;;;;;;;1.40;1.00;;;;;;;;;;5050310;28;20415;-84
2023/08/06 12:39:10;;;;;;;1.45;0.95;;;;;;;;;;5044637;28;20029;-85
2023/08/06 12:41:36;;;;;;;2.38;1.50;;;;;;;;;;5051733;28;20028;-84
2023/08/06 12:44:01;;;;;;;2.50;1.40;;;;;;;;;;5051449;28;20090;-84
2023/08/06 12:46:26;;;;;;;1.27;0.93;;;;;;;;;;5050682;28;20029;-85
2023/08/06 12:48:52;;;;;;;2.22;1.27;;;;;;;;;;5051579;28;20469;-83
2023/08/06 12:51:17;;;;;;;1.70;1.20;;;;;;;;;;5049984;28;20491;-85
2023/08/06 12:53:43;;;;;;;2.05;1.17;;;;;;;;;;5050145;28;20025;-83
2023/08/06 12:56:08;;;;;;;0.73;0.60;;;;;;;;;;5050153;28;20099;-85
2023/08/06 12:58:34;;;;;;;1.35;1.00;;;;;;;;;;5051210;28;20473;-85
2023/08/06 13:00:59;;;;;;;1.85;1.10;;;;;;;;;;5052003;28;20025;-86
2023/08/06 13:03:25;;;;;;;3.55;1.50;;;;;;;;;;5050276;28;20029;-85
2023/08/06 13:05:50;;;;;;;1.23;0.85;;;;;;;;;;5050230;28;20433;-86
2023/08/06 13:08:17;;;;;;;1.58;1.25;;;;;;;;;;5048481;28;20035;-86
2023/08/06 13:10:42;;;;;;;1.88;1.38;;;;;;;;;;5052876;28;20028;-85
2023/08/06 13:13:10;;;;;;;1.95;1.08;;;;;;;;;;5046130;28;20032;-84
2023/08/06 13:15:35;;;;;;;0.98;0.70;;;;;;;;;;5050004;28;20400;-85
2023/08/06 13:18:01;;;;;;;0.88;0.80;;;;;;;;;;5046195;28;20035;-85
2023/08/06 13:20:26;;;;;;;1.48;1.10;;;;;;;;;;5048974;28;20041;-84
2023/08/06 13:22:53;;;;;;;1.30;0.90;;;;;;;;;;5053533;28;20029;-85
2023/08/06 13:25:19;;;;;;;1.10;0.80;;;;;;;;;;5045637;28;20504;-84
2023/08/06 13:27:45;;;;;;;1.00;0.77;;;;;;;;;;5042029;28;20057;-84
2023/08/06 13:30:11;;;;;;;0.95;0.68;;;;;;;;;;5045176;28;20041;-84
2023/08/06 13:32:37;;;;;;;1.10;0.80;;;;;;;;;;5057347;28;20104;-83
2023/08/06 13:35:05;;;;;;;1.92;1.35;;;;;;;;;;5047321;28;20028;-84
2023/08/06 13:37:30;;;;;;;1.17;1.05;;;;;;;;;;5046805;28;20029;-84
2023/08/06 13:39:56;;;;;;;1.20;1.02;;;;;;;;;;5049392;28;20023;-87
2023/08/06 13:42:22;;;;;;;2.08;1.67;;;;;;;;;;5058407;28;20098;-88
2023/08/06 13:44:47;;;;;;;3.67;1.42;;;;;;;;;;5047570;28;20085;-86
2023/08/06 13:47:13;;;;;;;1.65;1.05;;;;;;;;;;5049115;28;20566;-86
2023/08/06 13:49:38;;;;;;;2.95;1.17;;;;;;;;;;5047551;28;20025;-84
2023/08/06 13:52:04;;;;;;;1.58;1.02;;;;;;;;;;5052981;28;20104;-84
2023/08/06 13:54:29;;;;;;;4.05;1.60;;;;;;;;;;5048602;28;20029;-84
2023/08/06 13:56:55;;;;;;;2.28;1.20;;;;;;;;;;5052192;28;20028;-86
2023/08/06 13:59:20;;;;;;;1.88;1.38;;;;;;;;;;5049334;28;20029;-85
2023/08/06 14:01:46;;;;;;;1.00;0.85;;;;;;;;;;5051207;28;20032;-83
2023/08/06 14:04:13;;;;;;;0.93;0.75;;;;;;;;;;5050103;28;20032;-85
2023/08/06 14:06:38;;;;;;;1.08;1.00;;;;;;;;;;5046907;28;20376;-84
2023/08/06 14:09:04;;;;;;;2.75;1.02;;;;;;;;;;5047633;28;20108;-84
2023/08/06 14:11:30;;;;;;;1.63;1.20;;;;;;;;;;5043016;28;20056;-86
2023/08/06 14:13:55;;;;;;;1.05;0.90;;;;;;;;;;5052245;28;20041;-85
2023/08/06 14:16:20;;;;;;;4.65;1.10;;;;;;;;;;5047170;28;20048;-86
2023/08/06 14:18:46;;;;;;;1.63;0.88;;;;;;;;;;5058846;28;20111;-85
2023/08/06 14:21:11;;;;;;;2.05;1.00;;;;;;;;;;5048975;28;20039;-85
2023/08/06 14:23:37;;;;;;;1.85;1.00;;;;;;;;;;5057235;28;20024;-86
2023/08/06 14:26:02;;;;;;;1.60;1.00;;;;;;;;;;5047044;28;20384;-85
2023/08/06 14:28:28;;;;;;;1.88;1.27;;;;;;;;;;5051443;28;20037;-85
2023/08/06 14:30:53;;;;;;;2.17;0.98;;;;;;;;;;5045253;28;20021;-84
2023/08/06 14:33:19;;;;;;;1.00;0.82;;;;;;;;;;5047899;28;20037;-87
2023/08/06 14:35:44;;;;;;;2.33;1.25;;;;;;;;;;5044543;28;20025;-87
2023/08/06 14:38:10;;;;;;;2.78;1.13;;;;;;;;;;5048260;28;20033;-86
2023/08/06 14:40:37;;;;;;;1.98;0.80;;;;;;;;;;5051810;28;20025;-86
2023/08/06 14:43:05;;;;;;;1.33;1.15;;;;;;;;;;5047652;28;20029;-86
2023/08/06 14:45:30;;;;;;;1.50;1.25;;;;;;;;;;5046524;28;20032;-86
2023/08/06 14:47:56;;;;;;;1.45;1.25;;;;;;;;;;5047182;28;20028;-86